Wheeler Army Airfield, Hawaii
Current Conditions -  °F | °C
As of 5:58 AM on Monday 26 Jan 2015 (Local Time) from PHHI Reporting Station
Clear Clear  
Wind Chill: 62°   Ceiling: Unl
Heat Index: 62°   Visibility: 10mi
Dew Point: 60°   Wind: 5mph
Humidity: 92%   Direction: 320°NW
Pressure: 29.95"   Gusts: NA
Location:  21.4859°N, 158.036°W
Report Text: PHHI 261558Z AUTO 32004KT 10SM CLR 17/16 A2995 RMK AO2 SLP138 T01680155 $
Loading
Personal Weather Stations






























Interactive Weather Map New forecast layout! Learn more

10-Day Weather Forecast

Advertisements
Track Severe Weather on mobile